createdAt,value
2022-12-18T00:00:48.705Z,80.50
2022-12-18T00:01:48.752Z,80.50
2022-12-18T00:02:48.807Z,80.01
2022-12-18T00:03:48.792Z,80.96
2022-12-18T00:04:48.652Z,81.20
2022-12-18T00:05:48.644Z,81.31
2022-12-18T00:06:48.644Z,82.29
2022-12-18T00:07:48.629Z,82.40
2022-12-18T00:08:48.617Z,82.29
2022-12-18T00:09:48.609Z,82.82
2022-12-18T00:10:48.600Z,82.40
2022-12-18T00:11:48.600Z,83.14
2022-12-18T00:12:48.575Z,82.71
2022-12-18T00:13:48.570Z,82.82
2022-12-18T00:14:48.556Z,82.75
2022-12-18T00:15:48.609Z,83.21
2022-12-18T00:16:48.538Z,83.21
2022-12-18T00:17:48.518Z,84.05
2022-12-18T00:18:48.518Z,84.69
2022-12-18T00:19:48.498Z,84.89
2022-12-18T00:20:48.493Z,84.58
2022-12-18T00:21:48.500Z,85.00
2022-12-18T00:22:48.474Z,84.69
2022-12-18T00:23:48.464Z,85.63
2022-12-18T00:24:48.456Z,85.31
2022-12-18T00:25:48.434Z,85.49
2022-12-18T00:26:48.445Z,86.05
2022-12-18T00:27:48.414Z,85.60
2022-12-18T00:28:48.402Z,85.49
2022-12-18T00:29:48.387Z,85.66
2022-12-18T00:30:48.383Z,85.55
2022-12-18T00:31:48.596Z,85.24
2022-12-18T00:32:48.386Z,85.03
2022-12-18T00:33:48.352Z,85.03
2022-12-18T00:34:48.337Z,84.92
2022-12-18T00:35:48.337Z,84.71
2022-12-18T00:36:48.324Z,84.40
2022-12-18T00:37:48.313Z,84.92
2022-12-18T00:38:48.308Z,84.92
2022-12-18T00:39:48.292Z,84.61
2022-12-18T00:40:48.287Z,85.24
2022-12-18T00:41:48.278Z,84.71
2022-12-18T00:42:48.262Z,84.19
2022-12-18T00:43:48.257Z,83.87
2022-12-18T00:44:48.235Z,83.34
2022-12-18T00:45:48.274Z,83.49
2022-12-18T00:46:48.233Z,84.29
2022-12-18T00:47:48.232Z,84.23
2022-12-18T00:48:48.191Z,84.01
2022-12-18T00:49:48.198Z,83.42
2022-12-18T00:50:48.183Z,83.31
2022-12-18T00:51:48.163Z,83.95
2022-12-18T00:52:48.166Z,83.49
2022-12-18T00:53:48.138Z,83.81
2022-12-18T00:54:48.151Z,84.05
2022-12-18T00:55:48.130Z,83.81
2022-12-18T00:56:49.973Z,83.95
2022-12-18T00:57:48.107Z,83.95
2022-12-18T00:58:48.087Z,84.47
2022-12-18T00:59:48.093Z,84.33
2022-12-18T01:00:48.145Z,84.33
2022-12-18T01:01:48.354Z,84.12
2022-12-18T01:02:48.169Z,83.76
2022-12-18T01:03:48.060Z,83.17
2022-12-18T01:04:48.041Z,83.07
2022-12-18T01:05:48.035Z,83.21
2022-12-18T01:06:48.010Z,83.42
2022-12-18T01:07:47.994Z,83.31
2022-12-18T01:08:47.990Z,83.95
2022-12-18T01:09:47.972Z,83.95
2022-12-18T01:10:47.958Z,83.84
2022-12-18T01:11:47.969Z,83.31
2022-12-18T01:12:47.941Z,83.31
2022-12-18T01:13:47.931Z,83.42
2022-12-18T01:14:47.920Z,84.05
2022-12-18T01:15:47.920Z,83.73
2022-12-18T01:16:47.992Z,84.27
2022-12-18T01:17:47.897Z,84.27
2022-12-18T01:18:47.886Z,84.33
2022-12-18T01:19:47.891Z,83.81
2022-12-18T01:20:47.868Z,83.28
2022-12-18T01:21:47.877Z,83.07
2022-12-18T01:22:47.867Z,83.59
2022-12-18T01:23:47.831Z,83.28
2022-12-18T01:24:47.816Z,83.28
2022-12-18T01:25:47.804Z,83.24
2022-12-18T01:26:47.801Z,82.82
2022-12-18T01:27:47.807Z,82.92
2022-12-18T01:28:47.783Z,82.61
2022-12-18T01:29:47.767Z,82.40
2022-12-18T01:30:47.754Z,82.08
2022-12-18T01:31:47.825Z,82.08
2022-12-18T01:32:47.753Z,82.19
2022-12-18T01:33:47.722Z,82.40
2022-12-18T01:34:47.728Z,82.50
2022-12-18T01:35:47.710Z,82.68
2022-12-18T01:36:47.698Z,81.84
2022-12-18T01:37:47.688Z,81.41
2022-12-18T01:38:47.690Z,81.31
2022-12-18T01:39:47.658Z,81.41
2022-12-18T01:40:47.649Z,81.52
2022-12-18T01:41:47.642Z,80.22
2022-12-18T01:42:47.623Z,80.26
2022-12-18T01:43:47.627Z,80.75
2022-12-18T01:44:47.615Z,80.54
2022-12-18T01:45:47.672Z,80.26
2022-12-18T01:46:47.588Z,79.94
2022-12-18T01:47:47.581Z,80.40
2022-12-18T01:48:47.570Z,80.44
2022-12-18T01:49:47.570Z,81.07
2022-12-18T01:50:47.549Z,81.52
2022-12-18T01:51:47.542Z,82.37
2022-12-18T01:52:47.525Z,82.37
2022-12-18T01:53:47.518Z,83.11
2022-12-18T01:54:47.547Z,82.89
2022-12-18T01:55:47.515Z,82.65
2022-12-18T01:56:47.485Z,83.07
2022-12-18T01:57:47.494Z,83.07
2022-12-18T01:58:47.472Z,82.43
2022-12-18T01:59:47.451Z,82.92
2022-12-18T02:00:47.511Z,83.34
2022-12-18T02:01:47.598Z,83.03
2022-12-18T02:02:47.547Z,82.04
2022-12-18T02:03:47.419Z,81.73
2022-12-18T02:04:49.568Z,81.45
2022-12-18T02:05:47.390Z,81.24
2022-12-18T02:06:47.396Z,81.17
2022-12-18T02:07:47.375Z,80.96
2022-12-18T02:08:47.355Z,81.49
2022-12-18T02:09:47.379Z,81.35
2022-12-18T02:10:47.334Z,81.81
2022-12-18T02:11:47.341Z,82.12
2022-12-18T02:12:47.438Z,82.12
2022-12-18T02:13:47.311Z,81.28
2022-12-18T02:14:47.298Z,81.42
2022-12-18T02:15:47.282Z,82.01
2022-12-18T02:16:47.335Z,82.43
2022-12-18T02:17:47.290Z,82.58
2022-12-18T02:18:47.252Z,82.58
2022-12-18T02:19:47.243Z,82.16
2022-12-18T02:20:47.230Z,83.11
2022-12-18T02:21:47.229Z,83.00
2022-12-18T02:22:47.207Z,82.89
2022-12-18T02:23:47.211Z,83.11
2022-12-18T02:24:47.207Z,82.86
2022-12-18T02:25:47.178Z,83.07
2022-12-18T02:26:47.167Z,82.26
2022-12-18T02:27:47.168Z,82.47
2022-12-18T02:28:47.264Z,82.26
2022-12-18T02:29:48.726Z,82.12
2022-12-18T02:30:47.197Z,82.54
2022-12-18T02:31:47.113Z,82.33
2022-12-18T02:32:47.108Z,82.33
2022-12-18T02:33:47.101Z,81.81
2022-12-18T02:34:47.099Z,81.35
2022-12-18T02:35:47.080Z,81.49
2022-12-18T02:36:47.068Z,81.17
2022-12-18T02:37:47.064Z,80.86
2022-12-18T02:38:47.047Z,81.07
2022-12-18T02:39:47.052Z,81.10
2022-12-18T02:40:47.027Z,81.59
2022-12-18T02:41:47.029Z,81.74
2022-12-18T02:42:47.006Z,81.00
2022-12-18T02:43:46.991Z,81.10
2022-12-18T02:44:47.095Z,81.42
2022-12-18T02:45:46.995Z,81.84
2022-12-18T02:46:46.963Z,81.14
2022-12-18T02:47:46.977Z,82.40
2022-12-18T02:48:46.945Z,82.30
2022-12-18T02:49:46.935Z,82.58
2022-12-18T02:50:46.917Z,82.47
2022-12-18T02:51:46.914Z,82.30
2022-12-18T02:52:46.921Z,82.30
2022-12-18T02:53:46.883Z,82.93
2022-12-18T02:54:46.882Z,82.72
2022-12-18T02:55:46.864Z,82.68
2022-12-18T02:56:46.858Z,82.89
2022-12-18T02:57:46.865Z,82.79
2022-12-18T02:58:46.831Z,82.68
2022-12-18T02:59:46.831Z,82.89
2022-12-18T03:00:46.927Z,82.26
2022-12-18T03:01:46.974Z,82.47
2022-12-18T03:02:46.938Z,82.47
2022-12-18T03:03:46.779Z,82.47
2022-12-18T03:04:46.776Z,82.62
2022-12-18T03:05:46.766Z,82.51
2022-12-18T03:06:46.754Z,82.30
2022-12-18T03:07:46.762Z,82.40
2022-12-18T03:08:46.728Z,82.79
2022-12-18T03:09:46.716Z,82.30
2022-12-18T03:10:46.704Z,82.37
2022-12-18T03:11:46.702Z,82.23
2022-12-18T03:12:46.690Z,82.58
2022-12-18T03:13:46.688Z,82.26
2022-12-18T03:14:46.665Z,81.70
2022-12-18T03:15:46.668Z,81.38
2022-12-18T03:16:46.847Z,81.17
2022-12-18T03:17:46.633Z,81.28
2022-12-18T03:18:46.627Z,81.66
2022-12-18T03:19:46.636Z,81.38
2022-12-18T03:20:46.607Z,80.75
2022-12-18T03:21:46.594Z,80.12
2022-12-18T03:22:46.593Z,80.68
2022-12-18T03:23:46.577Z,81.17
2022-12-18T03:24:46.575Z,80.96
2022-12-18T03:25:46.549Z,81.28
2022-12-18T03:26:46.538Z,80.86
2022-12-18T03:27:46.539Z,80.36
2022-12-18T03:28:46.516Z,80.79
2022-12-18T03:29:46.649Z,81.10
2022-12-18T03:30:46.599Z,81.74
2022-12-18T03:31:46.498Z,81.63
2022-12-18T03:32:55.451Z,81.42
2022-12-18T03:33:47.587Z,81.70
2022-12-18T03:34:46.456Z,81.17
2022-12-18T03:35:46.465Z,81.28
2022-12-18T03:36:46.444Z,81.38
2022-12-18T03:37:46.437Z,81.13
2022-12-18T03:38:46.414Z,80.86
2022-12-18T03:39:46.415Z,80.65
2022-12-18T03:40:46.391Z,80.44
2022-12-18T03:41:46.468Z,80.44
2022-12-18T03:42:46.369Z,80.44
2022-12-18T03:43:46.367Z,80.68
2022-12-18T03:44:46.356Z,80.26
2022-12-18T03:45:46.389Z,80.47
2022-12-18T03:46:46.356Z,80.68
2022-12-18T03:47:46.321Z,81.00
2022-12-18T03:48:46.312Z,81.00
2022-12-18T03:49:46.412Z,81.42
2022-12-18T03:50:46.307Z,80.54
2022-12-18T03:51:46.277Z,80.86
2022-12-18T03:52:46.275Z,80.86
2022-12-18T03:53:46.282Z,80.54
2022-12-18T03:54:46.254Z,80.33
2022-12-18T03:55:46.238Z,80.54
2022-12-18T03:56:46.226Z,80.12
2022-12-18T03:57:46.222Z,79.66
2022-12-18T03:58:46.237Z,80.22
2022-12-18T03:59:46.198Z,79.91
2022-12-18T04:00:46.192Z,80.05
2022-12-18T04:01:46.332Z,80.08
2022-12-18T04:02:46.316Z,80.76
2022-12-18T04:03:46.396Z,81.35
2022-12-18T04:04:46.164Z,81.70
2022-12-18T04:05:46.249Z,81.49
2022-12-18T04:06:46.121Z,82.59
2022-12-18T04:07:46.111Z,82.34
2022-12-18T04:08:46.119Z,82.76
2022-12-18T04:09:46.126Z,82.86
2022-12-18T04:10:46.081Z,82.93
2022-12-18T04:11:46.067Z,83.29
2022-12-18T04:12:46.065Z,82.86
2022-12-18T04:13:46.053Z,82.69
2022-12-18T04:14:46.044Z,82.27
2022-12-18T04:15:46.073Z,82.59
2022-12-18T04:16:46.023Z,83.18
2022-12-18T04:17:46.004Z,83.18
2022-12-18T04:18:46.000Z,83.07
2022-12-18T04:19:45.997Z,83.18
2022-12-18T04:20:45.973Z,83.25
2022-12-18T04:21:46.086Z,82.82
2022-12-18T04:22:45.962Z,82.51
2022-12-18T04:23:45.942Z,82.82
2022-12-18T04:24:45.946Z,82.20
2022-12-18T04:25:45.932Z,82.72
2022-12-18T04:26:45.910Z,82.62
2022-12-18T04:27:45.911Z,82.47
2022-12-18T04:28:45.890Z,82.62
2022-12-18T04:29:45.878Z,82.37
2022-12-18T04:30:45.890Z,81.84
2022-12-18T04:31:45.864Z,81.52
2022-12-18T04:32:51.933Z,81.63
2022-12-18T04:33:46.846Z,81.21
2022-12-18T04:34:45.850Z,81.10
2022-12-18T04:35:45.829Z,80.47
2022-12-18T04:36:45.823Z,80.47
2022-12-18T04:37:45.912Z,80.36
2022-12-18T04:38:45.793Z,80.58
2022-12-18T04:39:45.784Z,80.58
2022-12-18T04:40:45.772Z,80.26
2022-12-18T04:41:45.774Z,80.68
2022-12-18T04:42:45.832Z,80.36
2022-12-18T04:43:55.808Z,80.47
2022-12-18T04:44:45.726Z,80.16
2022-12-18T04:45:45.714Z,79.98
2022-12-18T04:46:45.750Z,79.98
2022-12-18T04:47:45.699Z,80.40
2022-12-18T04:48:45.691Z,80.30
2022-12-18T04:49:45.667Z,80.62
2022-12-18T04:50:45.662Z,80.82
2022-12-18T04:51:45.650Z,80.51
2022-12-18T04:52:45.649Z,80.58
2022-12-18T04:53:45.765Z,80.79
2022-12-18T04:54:45.616Z,80.58
2022-12-18T04:55:45.608Z,80.36
2022-12-18T04:56:45.597Z,80.58
2022-12-18T04:57:45.601Z,79.94
2022-12-18T04:58:45.612Z,80.26
2022-12-18T04:59:45.572Z,80.16
2022-12-18T05:00:45.560Z,80.16
2022-12-18T05:01:45.685Z,80.26
2022-12-18T05:02:45.633Z,80.16
2022-12-18T05:03:45.880Z,79.94
2022-12-18T05:04:45.522Z,79.94
2022-12-18T05:05:45.512Z,80.51
2022-12-18T05:06:45.498Z,80.40
2022-12-18T05:07:45.478Z,80.62
2022-12-18T05:08:45.482Z,80.62
2022-12-18T05:09:45.599Z,80.72
2022-12-18T05:10:45.449Z,80.51
2022-12-18T05:11:45.443Z,80.30
2022-12-18T05:12:45.443Z,80.97
2022-12-18T05:13:45.422Z,80.54
2022-12-18T05:14:45.407Z,81.11
2022-12-18T05:15:45.466Z,81.32
2022-12-18T05:16:45.393Z,81.63
2022-12-18T05:17:45.383Z,82.27
2022-12-18T05:18:45.371Z,82.17
2022-12-18T05:19:45.367Z,82.41
2022-12-18T05:20:45.354Z,82.37
2022-12-18T05:21:45.356Z,83.33
2022-12-18T05:22:45.324Z,82.94
2022-12-18T05:23:45.321Z,83.26
2022-12-18T05:24:45.300Z,83.95
2022-12-18T05:25:45.413Z,83.22
2022-12-18T05:26:45.290Z,83.43
2022-12-18T05:27:45.291Z,83.33
2022-12-18T05:28:45.260Z,83.18
2022-12-18T05:29:45.258Z,83.64
2022-12-18T05:30:45.240Z,83.29
2022-12-18T05:31:45.304Z,83.07
2022-12-18T05:32:45.224Z,82.76
2022-12-18T05:33:45.216Z,82.23
2022-12-18T05:34:45.199Z,82.34
2022-12-18T05:35:45.197Z,82.34
2022-12-18T05:36:45.198Z,82.37
2022-12-18T05:37:45.170Z,82.48
2022-12-18T05:38:45.160Z,82.59
2022-12-18T05:39:45.147Z,83.22
2022-12-18T05:40:45.135Z,83.33
2022-12-18T05:41:45.273Z,82.94
2022-12-18T05:42:45.115Z,83.47
2022-12-18T05:43:45.104Z,82.62
2022-12-18T05:44:45.095Z,83.64
2022-12-18T05:45:45.091Z,83.04
2022-12-18T05:46:45.172Z,83.47
2022-12-18T05:47:45.070Z,83.47
2022-12-18T05:48:45.058Z,84.06
2022-12-18T05:49:45.049Z,84.06
2022-12-18T05:50:45.032Z,84.02
2022-12-18T05:51:45.020Z,84.34
2022-12-18T05:52:45.054Z,82.97
2022-12-18T05:53:45.007Z,83.07
2022-12-18T05:54:44.994Z,83.46
2022-12-18T05:55:44.985Z,83.14
2022-12-18T05:56:48.640Z,82.51
2022-12-18T05:57:45.086Z,82.72
2022-12-18T05:58:44.962Z,82.37
2022-12-18T05:59:44.935Z,82.16
2022-12-18T06:00:44.946Z,81.63
2022-12-18T06:01:45.024Z,81.42
2022-12-18T06:02:44.999Z,81.32
2022-12-18T06:03:45.534Z,81.32
2022-12-18T06:04:44.883Z,81.00
2022-12-18T06:05:44.881Z,80.79
2022-12-18T06:06:44.870Z,80.51
2022-12-18T06:07:44.871Z,81.04
2022-12-18T06:08:46.726Z,81.35
2022-12-18T06:09:44.851Z,81.28
2022-12-18T06:10:44.824Z,81.28
2022-12-18T06:11:44.808Z,81.39
2022-12-18T06:12:44.806Z,81.92
2022-12-18T06:13:44.916Z,82.30
2022-12-18T06:14:44.800Z,82.20
2022-12-18T06:15:44.770Z,82.62
2022-12-18T06:16:44.768Z,82.62
2022-12-18T06:17:44.758Z,82.51
2022-12-18T06:18:44.747Z,82.72
2022-12-18T06:19:44.747Z,82.72
2022-12-18T06:20:44.738Z,82.68
2022-12-18T06:21:44.704Z,81.42
2022-12-18T06:22:44.697Z,81.32
2022-12-18T06:23:44.687Z,81.14
2022-12-18T06:24:44.675Z,81.21
2022-12-18T06:25:44.676Z,81.32
2022-12-18T06:26:44.680Z,81.74
2022-12-18T06:27:44.651Z,81.32
2022-12-18T06:28:44.636Z,80.90
2022-12-18T06:29:44.738Z,80.72
2022-12-18T06:30:44.613Z,81.10
2022-12-18T06:31:44.676Z,80.51
2022-12-18T06:32:44.608Z,80.23
2022-12-18T06:33:44.588Z,81.28
2022-12-18T06:34:44.575Z,81.60
2022-12-18T06:35:44.558Z,81.60
2022-12-18T06:36:44.573Z,82.65
2022-12-18T06:37:44.545Z,82.76
2022-12-18T06:38:44.536Z,82.34
2022-12-18T06:39:44.532Z,82.55
2022-12-18T06:40:44.522Z,82.44
2022-12-18T06:41:44.505Z,82.72
2022-12-18T06:42:44.505Z,82.55
2022-12-18T06:43:44.479Z,82.34
2022-12-18T06:44:44.462Z,82.55
2022-12-18T06:45:44.633Z,82.23
2022-12-18T06:46:44.457Z,82.23
2022-12-18T06:47:44.460Z,82.44
2022-12-18T06:48:44.434Z,82.44
2022-12-18T06:49:44.426Z,82.65
2022-12-18T06:50:44.403Z,82.02
2022-12-18T06:51:44.388Z,82.55
2022-12-18T06:52:44.387Z,82.76
2022-12-18T06:53:44.400Z,82.55
2022-12-18T06:54:44.381Z,82.34
2022-12-18T06:55:44.351Z,83.18
2022-12-18T06:56:44.340Z,82.82
2022-12-18T06:57:44.339Z,83.18
2022-12-18T06:58:44.334Z,82.65
2022-12-18T06:59:44.319Z,82.55
2022-12-18T07:00:44.345Z,82.34
2022-12-18T07:01:44.623Z,82.37
2022-12-18T07:02:44.376Z,82.37
2022-12-18T07:03:45.083Z,83.22
2022-12-18T07:04:44.269Z,82.86
2022-12-18T07:05:44.280Z,83.22
2022-12-18T07:06:44.241Z,83.01
2022-12-18T07:07:44.222Z,82.83
2022-12-18T07:08:44.217Z,83.08
2022-12-18T07:09:44.207Z,83.50
2022-12-18T07:10:47.425Z,84.14
2022-12-18T07:11:44.387Z,84.56
2022-12-18T07:12:44.183Z,85.23
2022-12-18T07:13:44.212Z,85.19
2022-12-18T07:14:44.153Z,85.02
2022-12-18T07:15:44.143Z,85.83
2022-12-18T07:16:44.215Z,85.30
2022-12-18T07:17:44.230Z,85.93
2022-12-18T07:18:44.115Z,85.68
2022-12-18T07:19:44.103Z,85.26
2022-12-18T07:20:44.112Z,85.43
2022-12-18T07:21:44.101Z,86.07
2022-12-18T07:22:44.079Z,84.59
2022-12-18T07:23:44.066Z,84.31
2022-12-18T07:24:44.061Z,84.52
2022-12-18T07:25:44.042Z,84.91
2022-12-18T07:26:44.027Z,85.58
2022-12-18T07:27:44.031Z,84.84
2022-12-18T07:28:44.019Z,84.94
2022-12-18T07:29:44.056Z,84.98
2022-12-18T07:30:43.996Z,85.09
2022-12-18T07:31:44.063Z,85.93
2022-12-18T07:32:43.970Z,85.83
2022-12-18T07:33:44.091Z,85.66
2022-12-18T07:34:43.967Z,85.83
2022-12-18T07:35:43.936Z,86.46
2022-12-18T07:36:43.938Z,86.67
2022-12-18T07:37:43.914Z,86.32
2022-12-18T07:38:43.930Z,86.63
2022-12-18T07:39:43.903Z,86.80
2022-12-18T07:40:43.916Z,85.96
2022-12-18T07:41:46.864Z,86.07
2022-12-18T07:42:43.870Z,85.75
2022-12-18T07:43:44.379Z,86.17
2022-12-18T07:44:43.854Z,85.29
2022-12-18T07:45:43.902Z,85.71
2022-12-18T07:46:43.846Z,85.82
2022-12-18T07:47:43.815Z,84.87
2022-12-18T07:48:44.662Z,84.66
2022-12-18T07:49:43.906Z,84.13
2022-12-18T07:50:43.785Z,84.30
2022-12-18T07:51:43.786Z,84.30
2022-12-18T07:52:43.771Z,84.20
2022-12-18T07:53:44.007Z,83.98
2022-12-18T07:54:43.749Z,84.45
2022-12-18T07:56:17.778Z,83.81
2022-12-18T07:56:44.734Z,84.06
2022-12-18T07:57:54.160Z,84.38
2022-12-18T07:58:44.698Z,85.26
2022-12-18T07:59:43.712Z,85.79
2022-12-18T08:00:43.679Z,86.25
2022-12-18T08:01:43.794Z,86.46
2022-12-18T08:02:43.776Z,86.67
2022-12-18T08:03:43.656Z,87.09
2022-12-18T08:04:43.641Z,87.05
2022-12-18T08:05:43.748Z,87.05
2022-12-18T08:06:47.592Z,86.84
2022-12-18T08:07:43.610Z,86.74
2022-12-18T08:08:43.598Z,87.05
2022-12-18T08:09:43.601Z,86.74
2022-12-18T08:10:43.583Z,87.16
2022-12-18T08:11:43.576Z,87.16
2022-12-18T08:12:43.562Z,86.84
2022-12-18T08:13:43.767Z,87.27
2022-12-18T08:14:43.529Z,87.23
2022-12-18T08:15:43.554Z,87.12
2022-12-18T08:16:43.564Z,87.96
2022-12-18T08:17:43.511Z,86.91
2022-12-18T08:18:43.503Z,87.02
2022-12-18T08:19:43.494Z,86.38
2022-12-18T08:20:43.478Z,86.59
2022-12-18T08:21:43.622Z,86.87
2022-12-18T08:22:43.459Z,86.98
2022-12-18T08:23:43.856Z,85.61
2022-12-18T08:24:43.438Z,85.92
2022-12-18T08:25:43.421Z,85.61
2022-12-18T08:26:51.837Z,86.03
2022-12-18T08:27:44.403Z,86.13
2022-12-18T08:28:43.390Z,85.39
2022-12-18T08:29:43.376Z,85.43
2022-12-18T08:30:43.445Z,85.85
2022-12-18T08:31:43.460Z,85.58
2022-12-18T08:32:43.374Z,85.93
2022-12-18T08:33:43.865Z,86.46
2022-12-18T08:34:43.330Z,87.05
2022-12-18T08:35:45.953Z,86.95
2022-12-18T08:36:43.321Z,87.96
2022-12-18T08:37:43.416Z,86.91
2022-12-18T08:38:43.300Z,86.38
2022-12-18T08:39:43.280Z,86.10
2022-12-18T08:40:43.273Z,86.74
2022-12-18T08:41:43.252Z,86.70
2022-12-18T08:42:43.255Z,87.02
2022-12-18T08:43:43.444Z,86.91
2022-12-18T08:44:43.226Z,87.23
2022-12-18T08:45:43.266Z,87.08
2022-12-18T08:46:43.201Z,86.66
2022-12-18T08:47:43.194Z,86.52
2022-12-18T08:48:43.198Z,86.13
2022-12-18T08:49:43.169Z,86.10
2022-12-18T08:50:43.165Z,85.36
2022-12-18T08:51:43.154Z,85.46
2022-12-18T08:52:43.150Z,85.78
2022-12-18T08:53:43.614Z,84.87
2022-12-18T08:54:43.128Z,84.45
2022-12-18T08:55:48.578Z,84.80
2022-12-18T08:56:44.094Z,85.54
2022-12-18T08:57:43.093Z,85.96
2022-12-18T08:58:43.080Z,85.22
2022-12-18T08:59:43.071Z,85.64
2022-12-18T09:00:43.076Z,85.33
2022-12-18T09:01:43.175Z,85.18
2022-12-18T09:02:43.202Z,85.61
2022-12-18T09:03:43.647Z,85.61
2022-12-18T09:04:43.035Z,85.39
2022-12-18T09:05:43.004Z,85.46
2022-12-18T09:06:42.998Z,85.67
2022-12-18T09:07:42.991Z,85.31
2022-12-18T09:08:43.338Z,85.11
2022-12-18T09:09:43.074Z,84.37
2022-12-18T09:10:43.471Z,84.37
2022-12-18T09:11:42.949Z,83.56
2022-12-18T09:12:42.936Z,83.50
2022-12-18T09:13:43.243Z,84.09
2022-12-18T09:14:42.905Z,84.34
2022-12-18T09:15:42.911Z,84.62
2022-12-18T09:16:42.939Z,84.94
2022-12-18T09:17:42.897Z,84.94
2022-12-18T09:18:43.399Z,84.89
2022-12-18T09:19:42.855Z,84.27
2022-12-18T09:20:42.863Z,84.37
2022-12-18T09:21:47.743Z,84.16
2022-12-18T09:22:43.833Z,84.05
2022-12-18T09:23:42.821Z,83.00
2022-12-18T09:24:42.799Z,83.56
2022-12-18T09:25:42.899Z,83.39
2022-12-18T09:26:43.658Z,83.98
2022-12-18T09:27:42.773Z,84.55
2022-12-18T09:28:43.231Z,84.45
2022-12-18T09:29:42.747Z,85.08
2022-12-18T09:30:42.813Z,85.92
2022-12-18T09:31:42.748Z,85.82
2022-12-18T09:32:42.738Z,85.71
2022-12-18T09:33:42.718Z,85.18
2022-12-18T09:34:42.713Z,86.13
2022-12-18T09:35:42.685Z,85.61
2022-12-18T09:36:42.683Z,86.41
2022-12-18T09:37:42.680Z,86.05
2022-12-18T09:38:43.118Z,85.63
2022-12-18T09:39:42.649Z,86.05
2022-12-18T09:40:42.651Z,84.96
2022-12-18T09:41:42.738Z,84.96
2022-12-18T09:42:42.622Z,84.33
2022-12-18T09:43:42.602Z,84.37
2022-12-18T09:44:45.338Z,84.37
2022-12-18T09:45:42.599Z,84.05
2022-12-18T09:46:42.659Z,84.94
2022-12-18T09:47:42.561Z,85.74
2022-12-18T09:48:42.961Z,85.57
2022-12-18T09:49:42.557Z,85.25
2022-12-18T09:50:42.533Z,86.10
2022-12-18T09:51:42.520Z,86.30
2022-12-18T09:52:42.509Z,86.94
2022-12-18T09:53:42.545Z,86.10
2022-12-18T09:54:42.492Z,86.79
2022-12-18T09:55:42.496Z,86.58
2022-12-18T09:56:42.476Z,86.27
2022-12-18T09:57:42.574Z,86.69
2022-12-18T09:58:42.894Z,86.58
2022-12-18T09:59:42.435Z,86.27
2022-12-18T10:00:42.439Z,86.33
2022-12-18T10:01:44.646Z,86.12
2022-12-18T10:02:42.567Z,85.77
2022-12-18T10:03:42.405Z,85.38
2022-12-18T10:04:42.456Z,85.38
2022-12-18T10:05:42.440Z,85.87
2022-12-18T10:06:42.367Z,85.07
2022-12-18T10:07:42.369Z,85.17
2022-12-18T10:08:42.917Z,85.28
2022-12-18T10:09:42.347Z,85.60
2022-12-18T10:10:42.340Z,85.45
2022-12-18T10:11:42.315Z,85.66
2022-12-18T10:12:42.335Z,85.24
2022-12-18T10:13:42.404Z,85.03
2022-12-18T10:14:42.306Z,85.03
2022-12-18T10:15:42.328Z,85.03
2022-12-18T10:16:42.278Z,85.35
2022-12-18T10:17:42.258Z,85.45
2022-12-18T10:18:42.721Z,85.35
2022-12-18T10:19:42.238Z,85.45
2022-12-18T10:20:42.248Z,85.62
2022-12-18T10:21:42.214Z,86.04
2022-12-18T10:22:42.203Z,84.89
2022-12-18T10:23:46.611Z,85.20
2022-12-18T10:24:43.180Z,84.99
2022-12-18T10:25:42.177Z,84.99
2022-12-18T10:26:42.154Z,85.52
2022-12-18T10:27:42.143Z,85.94
2022-12-18T10:28:42.731Z,85.20
2022-12-18T10:29:48.104Z,85.31
2022-12-18T10:30:43.321Z,85.31
2022-12-18T10:31:42.157Z,85.41
2022-12-18T10:32:42.095Z,85.20
2022-12-18T10:33:42.361Z,85.41
2022-12-18T10:34:42.073Z,86.04
2022-12-18T10:35:42.070Z,85.31
2022-12-18T10:36:42.057Z,85.90
2022-12-18T10:37:42.047Z,85.79
2022-12-18T10:38:42.556Z,85.27
2022-12-18T10:39:42.027Z,84.95
2022-12-18T10:40:42.012Z,85.48
2022-12-18T10:41:41.998Z,85.58
2022-12-18T10:42:41.987Z,84.74
2022-12-18T10:43:41.986Z,85.48
2022-12-18T10:44:50.888Z,85.44
2022-12-18T10:45:41.963Z,85.33
2022-12-18T10:46:42.130Z,85.23
2022-12-18T10:47:41.944Z,84.81
2022-12-18T10:48:42.546Z,84.49
2022-12-18T10:49:41.954Z,85.23
2022-12-18T10:51:09.790Z,84.39
2022-12-18T10:51:42.896Z,84.45
2022-12-18T10:52:45.016Z,85.08
2022-12-18T10:53:43.013Z,84.25
2022-12-18T10:54:41.918Z,84.18
2022-12-18T10:55:41.894Z,84.53
2022-12-18T10:56:41.859Z,84.53
2022-12-18T10:57:41.844Z,85.94
2022-12-18T10:58:42.359Z,85.20
2022-12-18T10:59:41.896Z,85.31
2022-12-18T11:00:41.804Z,86.46
2022-12-18T11:01:41.861Z,86.46
2022-12-18T11:02:42.152Z,86.57
2022-12-18T11:03:41.937Z,86.25
2022-12-18T11:04:41.767Z,86.04
2022-12-18T11:05:41.783Z,86.68
2022-12-18T11:06:41.746Z,86.46
2022-12-18T11:07:41.748Z,86.25
2022-12-18T11:08:42.150Z,86.88
2022-12-18T11:09:41.732Z,86.25
2022-12-18T11:10:41.720Z,86.78
2022-12-18T11:11:41.702Z,86.68
2022-12-18T11:12:41.713Z,86.78
2022-12-18T11:13:41.701Z,87.93
2022-12-18T11:14:46.587Z,87.79
2022-12-18T11:15:41.711Z,86.74
2022-12-18T11:16:46.239Z,87.48
2022-12-18T11:17:42.886Z,87.44
2022-12-18T11:18:42.286Z,87.75
2022-12-18T11:19:41.615Z,87.85
2022-12-18T11:20:41.605Z,87.08
2022-12-18T11:21:41.599Z,86.77
2022-12-18T11:22:41.587Z,86.03
2022-12-18T11:23:41.572Z,86.03
2022-12-18T11:24:41.556Z,85.61
2022-12-18T11:25:41.567Z,85.02
2022-12-18T11:26:41.536Z,85.27
2022-12-18T11:27:41.523Z,86.43
2022-12-18T11:28:42.051Z,86.74
2022-12-18T11:29:46.438Z,86.74
2022-12-18T11:30:42.494Z,86.88
2022-12-18T11:31:41.593Z,87.48
2022-12-18T11:32:41.517Z,87.58
2022-12-18T11:33:53.174Z,87.27
2022-12-18T11:34:42.600Z,87.23
2022-12-18T11:35:41.447Z,86.91
2022-12-18T11:36:41.449Z,86.91
2022-12-18T11:37:41.428Z,86.49
2022-12-18T11:38:41.747Z,86.70
2022-12-18T11:39:41.420Z,86.18
2022-12-18T11:40:41.740Z,86.03
2022-12-18T11:41:41.383Z,86.28
2022-12-18T11:42:41.373Z,86.28
2022-12-18T11:43:41.361Z,86.07
2022-12-18T11:44:41.354Z,85.86
2022-12-18T11:45:41.361Z,86.07
2022-12-18T11:46:41.382Z,86.38
2022-12-18T11:47:41.327Z,86.28
2022-12-18T11:48:41.680Z,86.28
2022-12-18T11:49:41.302Z,85.75
2022-12-18T11:50:41.419Z,86.80
2022-12-18T11:51:41.270Z,86.21
2022-12-18T11:52:41.272Z,86.38
2022-12-18T11:53:41.257Z,86.53
2022-12-18T11:54:41.256Z,86.74
2022-12-18T11:55:41.226Z,86.80
2022-12-18T11:56:41.235Z,86.95
2022-12-18T11:57:41.218Z,86.63
2022-12-18T11:58:41.477Z,87.12
2022-12-18T11:59:41.188Z,86.74
2022-12-18T12:00:41.181Z,86.78
2022-12-18T12:01:44.275Z,86.36
2022-12-18T12:02:41.315Z,87.30
2022-12-18T12:03:41.577Z,88.04
2022-12-18T12:04:41.208Z,87.73
2022-12-18T12:05:41.126Z,88.46
2022-12-18T12:06:46.272Z,88.10
2022-12-18T12:07:42.267Z,88.32
2022-12-18T12:08:41.092Z,87.79
2022-12-18T12:09:41.093Z,87.75
2022-12-18T12:10:41.089Z,87.23
2022-12-18T12:11:41.082Z,87.23
2022-12-18T12:12:45.217Z,87.44
2022-12-18T12:13:42.571Z,87.23
2022-12-18T12:14:41.032Z,87.33
2022-12-18T12:15:41.048Z,86.85
2022-12-18T12:16:41.092Z,86.74
2022-12-18T12:17:41.021Z,87.48
2022-12-18T12:18:41.012Z,87.58
2022-12-18T12:19:40.990Z,87.37
2022-12-18T12:20:40.969Z,87.37
2022-12-18T12:21:40.976Z,87.37
2022-12-18T12:22:40.966Z,87.37
2022-12-18T12:23:41.405Z,87.23
2022-12-18T12:24:41.181Z,87.23
2022-12-18T12:25:41.879Z,87.44
2022-12-18T12:26:41.855Z,87.33
2022-12-18T12:27:40.898Z,87.23
2022-12-18T12:28:41.148Z,87.82
2022-12-18T12:29:40.895Z,86.55
2022-12-18T12:30:40.867Z,86.77
2022-12-18T12:31:40.899Z,86.66
2022-12-18T12:32:40.848Z,86.41
2022-12-18T12:33:41.188Z,86.10
2022-12-18T12:34:40.863Z,86.20
2022-12-18T12:35:40.811Z,85.57
2022-12-18T12:36:40.800Z,85.74
2022-12-18T12:37:40.807Z,85.85
2022-12-18T12:38:40.789Z,84.91
2022-12-18T12:39:40.902Z,84.80
2022-12-18T12:40:52.418Z,85.42
2022-12-18T12:41:41.760Z,84.80
2022-12-18T12:42:40.740Z,84.76
2022-12-18T12:43:46.030Z,84.34
2022-12-18T12:44:41.720Z,83.75
2022-12-18T12:45:40.758Z,84.06
2022-12-18T12:46:40.742Z,83.96
2022-12-18T12:47:40.698Z,83.86
2022-12-18T12:48:41.127Z,82.91
2022-12-18T12:49:41.049Z,82.95
2022-12-18T12:50:40.663Z,84.00
2022-12-18T12:51:40.643Z,83.26
2022-12-18T12:52:40.655Z,84.10